Pelagos — SZSW — position and weather

sailwx.info

Track history (hours):
 
Tides and Currents Weather Stations Pressure Air Temp Water Temp Dewpoint Dewpoint Depression Visibility Wind Speed Wind Dir Waves Ship Positions

Pelagos

Last reported at 2016-Jul-01 19:09 UTC. Time now 2016-Jul-01 20:54 UTC.
Position N 69°02' E 033°02'.

Length 249 m; draft 8 m.

Type: Ship. MMSI: 240335000.

Date/timePositionNaut miles runAvg speedWind from/ knotsBaromVisibWave heightAir tempDewpointWater temp
2016-Jul-01 19:09N 69°02' E 033°02'0 0.0
2016-Jul-01 18:27N 69°02' E 033°02'0 0.0
2016-Jul-01 15:27N 69°02' E 033°02'0 0.0
2016-Jul-01 14:33N 69°02' E 033°02'0 0.0
2016-Jul-01 13:33N 69°02' E 033°02'0 0.0
2016-Jul-01 10:09N 69°02' E 033°02'0 0.0
2016-Jul-01 09:33N 69°02' E 033°02'0 0.0
2016-Jul-01 08:27N 69°02' E 033°02'0 0.0
2016-Jul-01 07:27N 69°02' E 033°02'0 0.0
2016-Jul-01 06:27N 69°02' E 033°02'0 0.0
2016-Jul-01 05:33N 69°02' E 033°02'0 0.0
2016-Jul-01 04:33N 69°02' E 033°02'0 0.0
2016-Jul-01 03:33N 69°02' E 033°02'0 0.0
2016-Jul-01 02:33N 69°02' E 033°02'0 0.0
2016-Jul-01 01:33N 69°02' E 033°02'0 0.0
2016-Jul-01 00:33N 69°02' E 033°02'0 0.0
2016-Jun-30 23:33N 69°02' E 033°02'0 0.0
2016-Jun-30 22:33N 69°02' E 033°02'0 0.0
2016-Jun-30 21:33N 69°02' E 033°02'0 0.0
2016-Jun-30 20:33N 69°02' E 033°02'0 0.0
2016-Jun-30 19:15N 69°02' E 033°02'0 0.0
2016-Jun-30 18:27N 69°02' E 033°02'0 0.0
2016-Jun-30 17:21N 69°02' E 033°02'0 0.0
2016-Jun-30 15:27N 69°02' E 033°02'0 0.0
2016-Jun-30 14:15N 69°02' E 033°02'0 0.0
2016-Jun-30 13:33N 69°02' E 033°02'0 0.0
2016-Jun-30 12:21N 69°02' E 033°02'0 0.0
2016-Jun-30 09:33N 69°02' E 033°02'1 0.6
2016-Jun-30 08:33N 69°03' E 033°03'  
2016-Jun-27 06:19N 64°54' E 005°44'1113.8
2016-Jun-27 05:33N 64°44' E 005°36'1413.8
2016-Jun-27 04:33N 64°31' E 005°26'34713.2
2016-Jun-26 02:22N 58°45' E 004°39'1113.4
2016-Jun-26 01:32N 58°38' E 004°54'1313.3
2016-Jun-26 00:33N 58°28' E 005°12'1413.4
2016-Jun-25 23:30N 58°18' E 005°31'1413.8
2016-Jun-25 22:30N 58°09' E 005°50'1313.2
2016-Jun-25 21:33N 58°01' E 006°08'1313.3
2016-Jun-25 20:33N 57°52' E 006°27'1312.7
2016-Jun-25 19:33N 57°47' E 006°49'1312.7
2016-Jun-25 18:33N 57°47' E 007°13'1313.3
2016-Jun-25 17:34N 57°46' E 007°38'1313.1
2016-Jun-25 16:33N 57°46' E 008°02'1313.0
2016-Jun-25 15:33N 57°47' E 008°27'1313.0
2016-Jun-25 14:33N 57°50' E 008°50'1313.0
2016-Jun-25 13:33N 57°53' E 009°14'1313.0
2016-Jun-25 12:33N 57°57' E 009°37'1313.0
2016-Jun-25 11:33N 58°02' E 010°00'1313.0
2016-Jun-25 10:33N 58°06' E 010°24'1312.9
2016-Jun-25 09:33N 58°10' E 010°47'1313.2
2016-Jun-25 08:34N 58°16' E 011°09'8 8.1
2016-Jun-25 07:33N 58°20' E 011°23'1 1.2
2016-Jun-25 06:33N 58°21' E 011°24'0 0.0
2016-Jun-25 05:33N 58°21' E 011°24'0 0.0
2016-Jun-25 04:33N 58°21' E 011°24'0 0.0
2016-Jun-25 03:33N 58°21' E 011°24'0 0.0
2016-Jun-25 02:33N 58°21' E 011°24'0 0.0
2016-Jun-25 01:33N 58°21' E 011°24'0 0.0
2016-Jun-25 00:33N 58°21' E 011°24'0 0.0
2016-Jun-24 23:33N 58°21' E 011°24'0 0.0
2016-Jun-24 22:33N 58°21' E 011°24'0 0.0
2016-Jun-24 21:33N 58°21' E 011°24'0 0.0
2016-Jun-24 20:33N 58°21' E 011°24'0 0.0
2016-Jun-24 19:33N 58°21' E 011°24'0 0.0
2016-Jun-24 18:33N 58°21' E 011°24'0 0.0
2016-Jun-24 17:33N 58°21' E 011°24'0 0.0
2016-Jun-24 16:33N 58°21' E 011°24'0 0.0
2016-Jun-24 15:30N 58°21' E 011°24'0 0.0
2016-Jun-24 14:33N 58°21' E 011°24'0 0.0
2016-Jun-24 13:33N 58°21' E 011°24'0 0.0
2016-Jun-24 12:33N 58°21' E 011°24'0 0.0
2016-Jun-24 11:33N 58°21' E 011°24'0 0.0
2016-Jun-24 10:33N 58°21' E 011°24'0 0.0
2016-Jun-24 09:33N 58°21' E 011°24'0 0.0
2016-Jun-24 08:33N 58°21' E 011°24'0 0.0
2016-Jun-24 07:33N 58°21' E 011°24'18 5.9
2016-Jun-24 04:34N 58°06' E 011°07'1313.3
2016-Jun-24 03:34N 57°53' E 011°09'1312.5
2016-Jun-24 02:33N 57°41' E 011°17'1312.6
2016-Jun-24 01:33N 57°29' E 011°27'1312.8
2016-Jun-24 00:34N 57°17' E 011°34'1312.7
2016-Jun-23 23:33N 57°05' E 011°41'1312.6
2016-Jun-23 22:33N 56°53' E 011°49'1211.6
2016-Jun-23 21:33N 56°42' E 011°51'33 9.8
2016-Jun-23 18:11N 56°20' E 011°06'812.6
2016-Jun-23 17:31N 56°12' E 011°06'4511.0
2016-Jun-23 13:23N 55°26' E 010°57'910.9
2016-Jun-23 12:32N 55°18' E 011°03'9 9.5
2016-Jun-23 11:33N 55°09' E 010°60'1212.0
2016-Jun-23 10:34N 54°57' E 010°55'1312.7
2016-Jun-23 09:34N 54°45' E 010°48'1110.7
2016-Jun-23 08:34N 54°37' E 010°59'1312.9
2016-Jun-23 07:34N 54°33' E 011°21'2512.6
2016-Jun-23 05:33N 54°27' E 012°02'10 9.8
2016-Jun-23 04:34N 54°33' E 012°15'9 9.2
2016-Jun-23 03:33N 54°40' E 012°26'10 9.8
2016-Jun-23 02:33N 54°45' E 012°41'8 8.4
2016-Jun-23 01:33N 54°49' E 012°53'1212.4
2016-Jun-23 00:33N 54°54' E 013°13'1312.7
2016-Jun-22 23:33N 54°58' E 013°34'1312.8
2016-Jun-22 22:33N 55°03' E 013°55'1212.1
2016-Jun-22 21:33N 55°11' E 014°11'1312.5
2016-Jun-22 20:33N 55°19' E 014°26'1212.4
2016-Jun-22 19:33N 55°28' E 014°41'1312.7
2016-Jun-22 18:34N 55°34' E 015°01'1312.5
2016-Jun-22 17:33N 55°39' E 015°22'1312.5
2016-Jun-22 16:33N 55°42' E 015°43'1412.8
2016-Jun-22 15:27N 55°45' E 016°08'  
Track history (hours):
 
Tides and Currents Weather Stations Pressure Air Temp Water Temp Dewpoint Dewpoint Depression Visibility Wind Speed Wind Dir Waves Ship Positions

Pelagos

Last reported at 2016-Jul-01 19:09 UTC. Time now 2016-Jul-01 20:54 UTC.
Position N 69°02' E 033°02'.

Length 249 m; draft 8 m.

Type: Ship. MMSI: 240335000.

Date/timePositionNaut miles runAvg speedWind from/ knotsBaromVisibWave heightAir tempDewpointWater temp
2016-Jul-01 19:09N 69°02' E 033°02'0 0.0
2016-Jul-01 18:27N 69°02' E 033°02'0 0.0
2016-Jul-01 15:27N 69°02' E 033°02'0 0.0
2016-Jul-01 14:33N 69°02' E 033°02'0 0.0
2016-Jul-01 13:33N 69°02' E 033°02'0 0.0
2016-Jul-01 10:09N 69°02' E 033°02'0 0.0
2016-Jul-01 09:33N 69°02' E 033°02'0 0.0
2016-Jul-01 08:27N 69°02' E 033°02'0 0.0
2016-Jul-01 07:27N 69°02' E 033°02'0 0.0
2016-Jul-01 06:27N 69°02' E 033°02'0 0.0
2016-Jul-01 05:33N 69°02' E 033°02'0 0.0
2016-Jul-01 04:33N 69°02' E 033°02'0 0.0
2016-Jul-01 03:33N 69°02' E 033°02'0 0.0
2016-Jul-01 02:33N 69°02' E 033°02'0 0.0
2016-Jul-01 01:33N 69°02' E 033°02'0 0.0
2016-Jul-01 00:33N 69°02' E 033°02'0 0.0
2016-Jun-30 23:33N 69°02' E 033°02'0 0.0
2016-Jun-30 22:33N 69°02' E 033°02'0 0.0
2016-Jun-30 21:33N 69°02' E 033°02'0 0.0
2016-Jun-30 20:33N 69°02' E 033°02'0 0.0
2016-Jun-30 19:15N 69°02' E 033°02'0 0.0
2016-Jun-30 18:27N 69°02' E 033°02'0 0.0
2016-Jun-30 17:21N 69°02' E 033°02'0 0.0
2016-Jun-30 15:27N 69°02' E 033°02'0 0.0
2016-Jun-30 14:15N 69°02' E 033°02'0 0.0
2016-Jun-30 13:33N 69°02' E 033°02'0 0.0
2016-Jun-30 12:21N 69°02' E 033°02'0 0.0
2016-Jun-30 09:33N 69°02' E 033°02'1 0.6
2016-Jun-30 08:33N 69°03' E 033°03'  
2016-Jun-27 06:19N 64°54' E 005°44'1113.8
2016-Jun-27 05:33N 64°44' E 005°36'1413.8
2016-Jun-27 04:33N 64°31' E 005°26'34713.2
2016-Jun-26 02:22N 58°45' E 004°39'1113.4
2016-Jun-26 01:32N 58°38' E 004°54'1313.3
2016-Jun-26 00:33N 58°28' E 005°12'1413.4
2016-Jun-25 23:30N 58°18' E 005°31'1413.8
2016-Jun-25 22:30N 58°09' E 005°50'1313.2
2016-Jun-25 21:33N 58°01' E 006°08'1313.3
2016-Jun-25 20:33N 57°52' E 006°27'1312.7
2016-Jun-25 19:33N 57°47' E 006°49'1312.7
2016-Jun-25 18:33N 57°47' E 007°13'1313.3
2016-Jun-25 17:34N 57°46' E 007°38'1313.1
2016-Jun-25 16:33N 57°46' E 008°02'1313.0
2016-Jun-25 15:33N 57°47' E 008°27'1313.0
2016-Jun-25 14:33N 57°50' E 008°50'1313.0
2016-Jun-25 13:33N 57°53' E 009°14'1313.0
2016-Jun-25 12:33N 57°57' E 009°37'1313.0
2016-Jun-25 11:33N 58°02' E 010°00'1313.0
2016-Jun-25 10:33N 58°06' E 010°24'1312.9
2016-Jun-25 09:33N 58°10' E 010°47'1313.2
2016-Jun-25 08:34N 58°16' E 011°09'8 8.1
2016-Jun-25 07:33N 58°20' E 011°23'1 1.2
2016-Jun-25 06:33N 58°21' E 011°24'0 0.0
2016-Jun-25 05:33N 58°21' E 011°24'0 0.0
2016-Jun-25 04:33N 58°21' E 011°24'0 0.0
2016-Jun-25 03:33N 58°21' E 011°24'0 0.0
2016-Jun-25 02:33N 58°21' E 011°24'0 0.0
2016-Jun-25 01:33N 58°21' E 011°24'0 0.0
2016-Jun-25 00:33N 58°21' E 011°24'0 0.0
2016-Jun-24 23:33N 58°21' E 011°24'0 0.0
2016-Jun-24 22:33N 58°21' E 011°24'0 0.0
2016-Jun-24 21:33N 58°21' E 011°24'0 0.0
2016-Jun-24 20:33N 58°21' E 011°24'0 0.0
2016-Jun-24 19:33N 58°21' E 011°24'0 0.0
2016-Jun-24 18:33N 58°21' E 011°24'0 0.0
2016-Jun-24 17:33N 58°21' E 011°24'0 0.0
2016-Jun-24 16:33N 58°21' E 011°24'0 0.0
2016-Jun-24 15:30N 58°21' E 011°24'0 0.0
2016-Jun-24 14:33N 58°21' E 011°24'0 0.0
2016-Jun-24 13:33N 58°21' E 011°24'0 0.0
2016-Jun-24 12:33N 58°21' E 011°24'0 0.0
2016-Jun-24 11:33N 58°21' E 011°24'0 0.0
2016-Jun-24 10:33N 58°21' E 011°24'0 0.0
2016-Jun-24 09:33N 58°21' E 011°24'0 0.0
2016-Jun-24 08:33N 58°21' E 011°24'0 0.0
2016-Jun-24 07:33N 58°21' E 011°24'18 5.9
2016-Jun-24 04:34N 58°06' E 011°07'1313.3
2016-Jun-24 03:34N 57°53' E 011°09'1312.5
2016-Jun-24 02:33N 57°41' E 011°17'1312.6
2016-Jun-24 01:33N 57°29' E 011°27'1312.8
2016-Jun-24 00:34N 57°17' E 011°34'1312.7
2016-Jun-23 23:33N 57°05' E 011°41'1312.6
2016-Jun-23 22:33N 56°53' E 011°49'1211.6
2016-Jun-23 21:33N 56°42' E 011°51'33 9.8
2016-Jun-23 18:11N 56°20' E 011°06'812.6
2016-Jun-23 17:31N 56°12' E 011°06'4511.0
2016-Jun-23 13:23N 55°26' E 010°57'910.9
2016-Jun-23 12:32N 55°18' E 011°03'9 9.5
2016-Jun-23 11:33N 55°09' E 010°60'1212.0
2016-Jun-23 10:34N 54°57' E 010°55'1312.7
2016-Jun-23 09:34N 54°45' E 010°48'1110.7
2016-Jun-23 08:34N 54°37' E 010°59'1312.9
2016-Jun-23 07:34N 54°33' E 011°21'2512.6
2016-Jun-23 05:33N 54°27' E 012°02'10 9.8
2016-Jun-23 04:34N 54°33' E 012°15'9 9.2
2016-Jun-23 03:33N 54°40' E 012°26'10 9.8
2016-Jun-23 02:33N 54°45' E 012°41'8 8.4
2016-Jun-23 01:33N 54°49' E 012°53'1212.4
2016-Jun-23 00:33N 54°54' E 013°13'1312.7
2016-Jun-22 23:33N 54°58' E 013°34'1312.8
2016-Jun-22 22:33N 55°03' E 013°55'1212.1
2016-Jun-22 21:33N 55°11' E 014°11'1312.5
2016-Jun-22 20:33N 55°19' E 014°26'1212.4
2016-Jun-22 19:33N 55°28' E 014°41'1312.7
2016-Jun-22 18:34N 55°34' E 015°01'1312.5
2016-Jun-22 17:33N 55°39' E 015°22'1312.5
2016-Jun-22 16:33N 55°42' E 015°43'1412.8
2016-Jun-22 15:27N 55°45' E 016°08'  

Dump ship's entire track history